createdAt,value
2023-03-20T00:00:16.486Z,0.00
2023-03-20T00:01:16.538Z,0.00
2023-03-20T00:02:16.468Z,0.00
2023-03-20T00:03:16.460Z,0.00
2023-03-20T00:04:16.788Z,0.00
2023-03-20T00:05:16.462Z,0.00
2023-03-20T00:06:16.423Z,0.00
2023-03-20T00:07:16.421Z,0.00
2023-03-20T00:08:16.410Z,0.00
2023-03-20T00:09:16.498Z,0.00
2023-03-20T00:10:16.387Z,0.00
2023-03-20T00:11:16.376Z,0.00
2023-03-20T00:12:16.372Z,0.00
2023-03-20T00:13:16.347Z,0.00
2023-03-20T00:14:16.361Z,0.00
2023-03-20T00:15:16.338Z,0.00
2023-03-20T00:16:16.388Z,0.00
2023-03-20T00:17:16.309Z,0.00
2023-03-20T00:18:16.309Z,0.00
2023-03-20T00:19:16.286Z,0.00
2023-03-20T00:20:16.299Z,0.00
2023-03-20T00:21:16.312Z,0.00
2023-03-20T00:22:16.301Z,0.00
2023-03-20T00:23:16.257Z,0.00
2023-03-20T00:24:16.471Z,0.00
2023-03-20T00:25:16.227Z,0.00
2023-03-20T00:26:16.218Z,0.00
2023-03-20T00:27:16.225Z,0.00
2023-03-20T00:28:16.200Z,0.00
2023-03-20T00:29:16.200Z,0.00
2023-03-20T00:30:16.186Z,0.00
2023-03-20T00:31:16.209Z,0.00
2023-03-20T00:32:16.176Z,0.00
2023-03-20T00:33:16.215Z,0.00
2023-03-20T00:34:16.156Z,0.00
2023-03-20T00:35:16.132Z,0.00
2023-03-20T00:36:16.123Z,0.00
2023-03-20T00:37:16.123Z,0.00
2023-03-20T00:38:16.109Z,0.00
2023-03-20T00:39:16.107Z,0.00
2023-03-20T00:40:16.086Z,0.00
2023-03-20T00:41:16.065Z,0.00
2023-03-20T00:42:16.086Z,0.00
2023-03-20T00:43:16.069Z,0.00
2023-03-20T00:44:16.046Z,0.00
2023-03-20T00:45:16.042Z,0.00
2023-03-20T00:46:16.093Z,0.00
2023-03-20T00:47:16.018Z,0.00
2023-03-20T00:48:16.010Z,0.00
2023-03-20T00:49:15.994Z,0.00
2023-03-20T00:50:15.990Z,0.00
2023-03-20T00:51:15.983Z,0.00
2023-03-20T00:52:15.974Z,0.00
2023-03-20T00:53:15.978Z,0.00
2023-03-20T00:54:15.947Z,0.00
2023-03-20T00:55:15.943Z,0.00
2023-03-20T00:56:15.913Z,0.00
2023-03-20T00:57:15.913Z,0.00
2023-03-20T00:58:15.919Z,0.00
2023-03-20T00:59:15.898Z,0.00
2023-03-20T01:00:15.877Z,0.00
2023-03-20T01:01:15.935Z,0.00
2023-03-20T01:02:15.915Z,0.00
2023-03-20T01:03:15.870Z,0.00
2023-03-20T01:04:15.856Z,0.00
2023-03-20T01:05:15.853Z,0.00
2023-03-20T01:06:15.822Z,0.00
2023-03-20T01:07:15.822Z,0.00
2023-03-20T01:08:15.798Z,0.00
2023-03-20T01:09:15.945Z,0.00
2023-03-20T01:10:15.776Z,0.00
2023-03-20T01:11:15.766Z,0.00
2023-03-20T01:12:15.758Z,0.00
2023-03-20T01:13:15.760Z,0.00
2023-03-20T01:14:15.775Z,0.00
2023-03-20T01:15:15.729Z,0.00
2023-03-20T01:16:15.945Z,0.00
2023-03-20T01:17:15.702Z,0.00
2023-03-20T01:18:15.703Z,0.00
2023-03-20T01:19:15.690Z,0.00
2023-03-20T01:20:15.875Z,0.00
2023-03-20T01:21:15.660Z,0.00
2023-03-20T01:22:15.690Z,0.00
2023-03-20T01:23:15.637Z,0.00
2023-03-20T01:24:15.623Z,0.00
2023-03-20T01:25:16.034Z,0.00
2023-03-20T01:26:15.623Z,0.00
2023-03-20T01:27:15.601Z,0.00
2023-03-20T01:28:15.600Z,0.00
2023-03-20T01:29:15.587Z,0.00
2023-03-20T01:30:15.576Z,0.00
2023-03-20T01:31:15.565Z,0.00
2023-03-20T01:32:15.556Z,0.00
2023-03-20T01:33:15.562Z,0.00
2023-03-20T01:34:15.524Z,0.00
2023-03-20T01:35:15.520Z,0.00
2023-03-20T01:36:15.553Z,0.00
2023-03-20T01:37:15.511Z,0.00
2023-03-20T01:38:15.492Z,0.00
2023-03-20T01:39:15.477Z,0.00
2023-03-20T01:40:15.463Z,0.00
2023-03-20T01:41:15.509Z,0.00
2023-03-20T01:42:15.460Z,0.00
2023-03-20T01:43:15.446Z,0.00
2023-03-20T01:44:15.428Z,0.00
2023-03-20T01:45:15.418Z,0.00
2023-03-20T01:46:15.538Z,0.00
2023-03-20T01:47:15.396Z,0.00
2023-03-20T01:48:15.385Z,0.00
2023-03-20T01:49:15.381Z,0.00
2023-03-20T01:50:15.375Z,0.00
2023-03-20T01:51:15.351Z,0.00
2023-03-20T01:52:15.367Z,0.00
2023-03-20T01:53:15.536Z,0.00
2023-03-20T01:54:15.330Z,0.00
2023-03-20T01:55:15.354Z,0.00
2023-03-20T01:56:15.293Z,0.00
2023-03-20T01:57:15.341Z,0.00
2023-03-20T01:58:15.303Z,0.00
2023-03-20T01:59:15.276Z,0.00
2023-03-20T02:00:15.289Z,0.00
2023-03-20T02:01:15.333Z,0.00
2023-03-20T02:02:15.248Z,0.00
2023-03-20T02:03:15.237Z,0.00
2023-03-20T02:04:15.213Z,0.00
2023-03-20T02:05:15.206Z,0.00
2023-03-20T02:06:15.202Z,0.00
2023-03-20T02:07:15.187Z,0.00
2023-03-20T02:08:15.195Z,0.00
2023-03-20T02:09:15.390Z,0.00
2023-03-20T02:10:15.155Z,0.00
2023-03-20T02:11:15.147Z,0.00
2023-03-20T02:12:15.181Z,0.00
2023-03-20T02:13:15.184Z,0.00
2023-03-20T02:14:15.158Z,0.00
2023-03-20T02:15:15.118Z,0.00
2023-03-20T02:16:15.137Z,0.00
2023-03-20T02:17:15.119Z,0.00
2023-03-20T02:18:15.123Z,0.00
2023-03-20T02:19:15.078Z,0.00
2023-03-20T02:20:15.071Z,0.00
2023-03-20T02:21:15.054Z,0.00
2023-03-20T02:22:15.030Z,0.00
2023-03-20T02:23:15.240Z,0.00
2023-03-20T02:24:15.009Z,0.00
2023-03-20T02:25:15.015Z,0.00
2023-03-20T02:26:14.986Z,0.00
2023-03-20T02:27:15.004Z,0.00
2023-03-20T02:28:15.174Z,0.00
2023-03-20T02:29:15.031Z,0.00
2023-03-20T02:30:14.970Z,0.00
2023-03-20T02:31:14.989Z,0.00
2023-03-20T02:32:14.934Z,0.00
2023-03-20T02:33:14.929Z,0.00
2023-03-20T02:34:14.907Z,0.00
2023-03-20T02:35:15.097Z,0.00
2023-03-20T02:36:14.957Z,0.00
2023-03-20T02:37:14.887Z,0.00
2023-03-20T02:38:14.881Z,0.00
2023-03-20T02:39:14.900Z,0.00
2023-03-20T02:40:14.856Z,0.00
2023-03-20T02:41:14.930Z,0.00
2023-03-20T02:42:14.868Z,0.00
2023-03-20T02:43:14.832Z,0.00
2023-03-20T02:44:14.812Z,0.00
2023-03-20T02:45:14.831Z,0.00
2023-03-20T02:46:14.853Z,0.00
2023-03-20T02:47:14.784Z,0.00
2023-03-20T02:48:14.994Z,0.00
2023-03-20T02:49:14.761Z,0.00
2023-03-20T02:50:14.737Z,0.00
2023-03-20T02:51:14.744Z,0.00
2023-03-20T02:52:14.927Z,0.00
2023-03-20T02:53:14.976Z,0.00
2023-03-20T02:54:14.903Z,0.00
2023-03-20T02:55:14.897Z,0.00
2023-03-20T02:56:14.692Z,0.00
2023-03-20T02:57:14.707Z,0.00
2023-03-20T02:58:14.648Z,0.00
2023-03-20T02:59:14.653Z,0.00
2023-03-20T03:00:14.703Z,0.00
2023-03-20T03:01:14.903Z,0.00
2023-03-20T03:02:14.687Z,0.00
2023-03-20T03:03:14.614Z,0.00
2023-03-20T03:04:14.618Z,0.00
2023-03-20T03:05:15.002Z,0.00
2023-03-20T03:06:14.583Z,0.00
2023-03-20T03:07:14.571Z,0.00
2023-03-20T03:08:14.595Z,0.00
2023-03-20T03:09:17.627Z,0.00
2023-03-20T03:10:14.539Z,0.00
2023-03-20T03:11:14.530Z,0.00
2023-03-20T03:12:14.508Z,0.00
2023-03-20T03:13:14.538Z,0.00
2023-03-20T03:14:14.488Z,0.00
2023-03-20T03:15:14.505Z,0.00
2023-03-20T03:16:14.515Z,0.00
2023-03-20T03:17:14.489Z,0.00
2023-03-20T03:18:14.453Z,0.00
2023-03-20T03:19:14.491Z,0.00
2023-03-20T03:20:14.451Z,0.00
2023-03-20T03:21:14.428Z,0.00
2023-03-20T03:22:14.412Z,0.00
2023-03-20T03:23:14.429Z,0.00
2023-03-20T03:24:14.437Z,0.00
2023-03-20T03:25:14.447Z,0.00
2023-03-20T03:26:14.358Z,0.00
2023-03-20T03:27:14.561Z,0.00
2023-03-20T03:28:14.400Z,0.00
2023-03-20T03:29:14.380Z,0.00
2023-03-20T03:30:14.546Z,0.00
2023-03-20T03:31:14.369Z,0.00
2023-03-20T03:32:14.322Z,0.00
2023-03-20T03:33:14.399Z,0.00
2023-03-20T03:34:14.277Z,0.00
2023-03-20T03:35:14.281Z,0.00
2023-03-20T03:36:14.567Z,0.00
2023-03-20T03:37:14.282Z,0.00
2023-03-20T03:38:14.254Z,0.00
2023-03-20T03:39:14.253Z,0.00
2023-03-20T03:40:14.255Z,0.00
2023-03-20T03:41:14.236Z,0.00
2023-03-20T03:42:14.216Z,0.00
2023-03-20T03:43:14.200Z,0.00
2023-03-20T03:44:14.176Z,0.00
2023-03-20T03:45:14.185Z,0.00
2023-03-20T03:46:14.224Z,0.00
2023-03-20T03:47:14.361Z,0.00
2023-03-20T03:48:14.154Z,0.00
2023-03-20T03:49:14.142Z,0.00
2023-03-20T03:50:14.136Z,0.00
2023-03-20T03:51:14.105Z,0.00
2023-03-20T03:52:14.149Z,0.00
2023-03-20T03:53:14.119Z,0.00
2023-03-20T03:54:14.072Z,0.00
2023-03-20T03:55:14.066Z,0.00
2023-03-20T03:56:14.118Z,0.00
2023-03-20T03:57:14.040Z,0.00
2023-03-20T03:58:14.027Z,0.00
2023-03-20T03:59:14.055Z,0.00
2023-03-20T04:00:14.016Z,0.00
2023-03-20T04:01:13.995Z,0.00
2023-03-20T04:02:14.083Z,0.00
2023-03-20T04:03:14.003Z,0.00
2023-03-20T04:04:14.229Z,0.00
2023-03-20T04:05:13.997Z,0.00
2023-03-20T04:06:13.958Z,0.00
2023-03-20T04:07:13.947Z,0.00
2023-03-20T04:08:14.122Z,0.00
2023-03-20T04:09:13.945Z,0.00
2023-03-20T04:10:13.909Z,0.00
2023-03-20T04:11:14.105Z,0.00
2023-03-20T04:12:13.892Z,0.00
2023-03-20T04:13:13.961Z,0.00
2023-03-20T04:14:13.864Z,0.00
2023-03-20T04:15:13.890Z,0.00
2023-03-20T04:16:13.879Z,0.00
2023-03-20T04:17:13.840Z,0.00
2023-03-20T04:18:13.817Z,0.00
2023-03-20T04:19:13.824Z,0.00
2023-03-20T04:20:13.859Z,0.00
2023-03-20T04:21:13.854Z,0.00
2023-03-20T04:22:13.776Z,0.00
2023-03-20T04:23:13.793Z,0.00
2023-03-20T04:24:13.753Z,0.00
2023-03-20T04:25:13.749Z,0.00
2023-03-20T04:26:13.792Z,0.00
2023-03-20T04:27:13.747Z,0.00
2023-03-20T04:28:13.731Z,0.00
2023-03-20T04:29:13.706Z,0.00
2023-03-20T04:30:13.714Z,0.00
2023-03-20T04:31:13.724Z,0.00
2023-03-20T04:32:13.903Z,0.00
2023-03-20T04:33:13.969Z,0.00
2023-03-20T04:34:13.704Z,0.00
2023-03-20T04:35:13.862Z,0.00
2023-03-20T04:36:13.655Z,0.00
2023-03-20T04:37:13.661Z,0.00
2023-03-20T04:38:13.647Z,0.00
2023-03-20T04:39:13.623Z,0.00
2023-03-20T04:40:13.601Z,0.00
2023-03-20T04:41:13.603Z,0.00
2023-03-20T04:42:13.580Z,0.00
2023-03-20T04:43:13.564Z,0.00
2023-03-20T04:44:13.586Z,0.00
2023-03-20T04:45:13.555Z,0.00
2023-03-20T04:46:13.542Z,0.00
2023-03-20T04:47:13.520Z,0.00
2023-03-20T04:48:13.525Z,0.00
2023-03-20T04:49:13.566Z,0.00
2023-03-20T04:50:13.508Z,0.00
2023-03-20T04:51:13.726Z,0.00
2023-03-20T04:52:13.462Z,0.00
2023-03-20T04:53:13.508Z,0.00
2023-03-20T04:54:13.640Z,0.00
2023-03-20T04:55:13.668Z,0.00
2023-03-20T04:56:13.435Z,0.00
2023-03-20T04:57:13.417Z,0.00
2023-03-20T04:58:13.426Z,4.00
2023-03-20T04:59:13.435Z,4.00
2023-03-20T05:00:13.394Z,0.00
2023-03-20T05:01:13.509Z,4.00
2023-03-20T05:02:13.372Z,4.00
2023-03-20T05:03:13.369Z,0.00
2023-03-20T05:04:13.414Z,4.00
2023-03-20T05:05:13.341Z,8.00
2023-03-20T05:06:13.363Z,4.00
2023-03-20T05:07:13.323Z,4.00
2023-03-20T05:08:13.305Z,4.00
2023-03-20T05:09:13.449Z,8.00
2023-03-20T05:10:13.277Z,8.00
2023-03-20T05:11:13.268Z,8.00
2023-03-20T05:12:13.249Z,12.00
2023-03-20T05:13:13.282Z,16.00
2023-03-20T05:14:13.278Z,16.00
2023-03-20T05:15:13.220Z,16.00
2023-03-20T05:16:13.489Z,20.00
2023-03-20T05:17:13.197Z,20.00
2023-03-20T05:18:13.192Z,24.00
2023-03-20T05:19:13.192Z,24.00
2023-03-20T05:20:13.189Z,28.00
2023-03-20T05:21:13.179Z,28.00
2023-03-20T05:22:13.157Z,32.00
2023-03-20T05:23:13.166Z,36.00
2023-03-20T05:24:13.137Z,40.00
2023-03-20T05:25:13.378Z,40.00
2023-03-20T05:26:13.336Z,40.00
2023-03-20T05:27:13.149Z,44.00
2023-03-20T05:28:13.089Z,48.00
2023-03-20T05:29:13.074Z,52.00
2023-03-20T05:30:13.064Z,56.00
2023-03-20T05:31:13.102Z,60.00
2023-03-20T05:32:13.252Z,64.00
2023-03-20T05:33:13.083Z,68.00
2023-03-20T05:34:13.023Z,68.00
2023-03-20T05:35:13.024Z,76.00
2023-03-20T05:36:13.102Z,80.00
2023-03-20T05:37:13.025Z,84.00
2023-03-20T05:38:12.998Z,88.00
2023-03-20T05:39:13.197Z,92.00
2023-03-20T05:40:12.974Z,96.00
2023-03-20T05:41:12.958Z,100.00
2023-03-20T05:42:12.937Z,104.00
2023-03-20T05:43:13.139Z,112.00
2023-03-20T05:44:12.927Z,116.00
2023-03-20T05:45:13.002Z,124.00
2023-03-20T05:46:12.926Z,128.00
2023-03-20T05:47:12.916Z,140.00
2023-03-20T05:48:12.921Z,148.00
2023-03-20T05:49:12.922Z,156.00
2023-03-20T05:50:12.864Z,164.00
2023-03-20T05:51:12.882Z,172.00
2023-03-20T05:52:12.827Z,180.00
2023-03-20T05:53:12.836Z,188.00
2023-03-20T05:54:12.858Z,196.00
2023-03-20T05:55:12.820Z,204.00
2023-03-20T05:56:12.815Z,212.00
2023-03-20T05:57:12.826Z,220.00
2023-03-20T05:58:12.782Z,228.00
2023-03-20T05:59:12.765Z,236.00
2023-03-20T06:00:12.738Z,244.00
2023-03-20T06:01:12.750Z,256.00
2023-03-20T06:02:12.741Z,260.00
2023-03-20T06:03:12.802Z,268.00
2023-03-20T06:04:12.706Z,276.00
2023-03-20T06:05:12.717Z,284.00
2023-03-20T06:06:12.682Z,288.00
2023-03-20T06:07:12.675Z,292.00
2023-03-20T06:08:12.664Z,300.00
2023-03-20T06:09:12.692Z,308.00
2023-03-20T06:10:12.695Z,316.00
2023-03-20T06:11:12.644Z,324.00
2023-03-20T06:12:12.640Z,332.00
2023-03-20T06:13:12.655Z,348.00
2023-03-20T06:14:12.608Z,360.00
2023-03-20T06:15:12.588Z,372.00
2023-03-20T06:16:12.740Z,388.00
2023-03-20T06:17:12.583Z,400.00
2023-03-20T06:18:12.583Z,412.00
2023-03-20T06:19:12.551Z,420.00
2023-03-20T06:20:12.567Z,428.00
2023-03-20T06:21:12.536Z,436.00
2023-03-20T06:22:12.535Z,436.00
2023-03-20T06:23:12.523Z,436.00
2023-03-20T06:24:12.486Z,428.00
2023-03-20T06:25:12.482Z,424.00
2023-03-20T06:26:12.477Z,428.00
2023-03-20T06:27:12.456Z,424.00
2023-03-20T06:28:12.462Z,432.00
2023-03-20T06:29:12.489Z,444.00
2023-03-20T06:30:12.680Z,448.00
2023-03-20T06:31:12.458Z,440.00
2023-03-20T06:32:12.475Z,436.00
2023-03-20T06:33:12.466Z,448.00
2023-03-20T06:34:12.398Z,456.00
2023-03-20T06:35:12.472Z,460.00
2023-03-20T06:36:12.380Z,468.00
2023-03-20T06:37:12.361Z,488.00
2023-03-20T06:38:12.384Z,512.00
2023-03-20T06:39:12.345Z,544.00
2023-03-20T06:40:12.321Z,568.00
2023-03-20T06:41:16.717Z,592.00
2023-03-20T06:42:13.911Z,612.00
2023-03-20T06:43:12.294Z,628.00
2023-03-20T06:44:12.307Z,656.00
2023-03-20T06:45:12.327Z,684.00
2023-03-20T06:46:12.286Z,712.00
2023-03-20T06:47:12.282Z,732.00
2023-03-20T06:48:12.221Z,752.00
2023-03-20T06:49:12.218Z,784.00
2023-03-20T06:50:12.230Z,800.00
2023-03-20T06:51:12.208Z,816.00
2023-03-20T06:52:12.213Z,828.00
2023-03-20T06:53:12.188Z,836.00
2023-03-20T06:54:12.168Z,848.00
2023-03-20T06:55:12.157Z,856.00
2023-03-20T06:56:12.165Z,872.00
2023-03-20T06:57:14.707Z,888.00
2023-03-20T06:58:12.136Z,904.00
2023-03-20T06:59:12.129Z,924.00
2023-03-20T07:00:12.114Z,952.00
2023-03-20T07:01:12.110Z,988.00
2023-03-20T07:02:12.248Z,1004.00
2023-03-20T07:03:12.105Z,992.00
2023-03-20T07:04:12.067Z,988.00
2023-03-20T07:05:12.164Z,992.00
2023-03-20T07:06:12.051Z,980.00
2023-03-20T07:07:12.240Z,972.00
2023-03-20T07:08:12.035Z,980.00
2023-03-20T07:09:12.015Z,956.00
2023-03-20T07:10:11.999Z,900.00
2023-03-20T07:11:12.004Z,844.00
2023-03-20T07:12:11.986Z,800.00
2023-03-20T07:13:12.010Z,752.00
2023-03-20T07:14:11.976Z,708.00
2023-03-20T07:15:11.953Z,688.00
2023-03-20T07:16:12.022Z,668.00
2023-03-20T07:17:11.971Z,644.00
2023-03-20T07:18:11.942Z,632.00
2023-03-20T07:19:11.914Z,628.00
2023-03-20T07:20:11.913Z,632.00
2023-03-20T07:21:11.900Z,644.00
2023-03-20T07:22:11.906Z,668.00
2023-03-20T07:23:11.881Z,712.00
2023-03-20T07:24:11.871Z,764.00
2023-03-20T07:25:11.925Z,788.00
2023-03-20T07:26:12.073Z,796.00
2023-03-20T07:27:11.841Z,776.00
2023-03-20T07:28:11.845Z,752.00
2023-03-20T07:29:11.836Z,728.00
2023-03-20T07:30:11.813Z,716.00
2023-03-20T07:31:11.862Z,688.00
2023-03-20T07:32:12.013Z,688.00
2023-03-20T07:33:11.922Z,700.00
2023-03-20T07:34:11.779Z,688.00
2023-03-20T07:35:11.778Z,664.00
2023-03-20T07:36:11.759Z,660.00
2023-03-20T07:37:11.762Z,676.00
2023-03-20T07:38:11.720Z,736.00
2023-03-20T07:39:11.713Z,828.00
2023-03-20T07:40:11.703Z,920.00
2023-03-20T07:41:11.694Z,980.00
2023-03-20T07:42:11.721Z,1060.00
2023-03-20T07:43:11.685Z,1176.00
2023-03-20T07:44:11.693Z,1256.00
2023-03-20T07:45:11.670Z,1320.00
2023-03-20T07:46:11.803Z,1368.00
2023-03-20T07:47:11.673Z,1484.00
2023-03-20T07:48:11.637Z,1664.00
2023-03-20T07:49:11.632Z,1836.00
2023-03-20T07:50:11.675Z,2000.00
2023-03-20T07:51:11.608Z,2068.00
2023-03-20T07:52:11.605Z,2228.00
2023-03-20T07:53:11.582Z,2332.00
2023-03-20T07:54:11.602Z,2156.00
2023-03-20T07:55:11.547Z,1856.00
2023-03-20T07:56:11.558Z,1684.00
2023-03-20T07:57:11.555Z,1500.00
2023-03-20T07:58:11.563Z,1304.00
2023-03-20T07:59:11.725Z,1148.00
2023-03-20T08:00:11.539Z,1040.00
2023-03-20T08:01:11.494Z,972.00
2023-03-20T08:02:11.485Z,936.00
2023-03-20T08:03:11.618Z,904.00
2023-03-20T08:04:11.547Z,884.00
2023-03-20T08:05:11.515Z,900.00
2023-03-20T08:06:11.452Z,960.00
2023-03-20T08:07:11.426Z,1052.00
2023-03-20T08:08:11.665Z,1144.00
2023-03-20T08:09:11.659Z,1220.00
2023-03-20T08:10:11.419Z,1244.00
2023-03-20T08:11:11.413Z,1220.00
2023-03-20T08:12:11.437Z,1176.00
2023-03-20T08:13:11.372Z,1120.00
2023-03-20T08:14:11.410Z,1072.00
2023-03-20T08:15:11.391Z,1040.00
2023-03-20T08:16:11.371Z,1024.00
2023-03-20T08:17:15.767Z,1080.00
2023-03-20T08:18:11.342Z,1200.00
2023-03-20T08:19:11.340Z,1276.00
2023-03-20T08:20:11.322Z,1420.00
2023-03-20T08:21:11.333Z,1588.00
2023-03-20T08:22:11.329Z,1732.00
2023-03-20T08:23:11.508Z,1828.00
2023-03-20T08:24:11.319Z,1928.00
2023-03-20T08:25:11.271Z,2016.00
2023-03-20T08:26:11.277Z,1972.00
2023-03-20T08:27:11.256Z,1924.00
2023-03-20T08:28:11.450Z,2108.00
2023-03-20T08:29:11.250Z,2304.00
2023-03-20T08:30:11.241Z,2388.00
2023-03-20T08:31:11.334Z,2376.00
2023-03-20T08:32:11.261Z,2324.00
2023-03-20T08:33:11.319Z,2160.00
2023-03-20T08:34:11.200Z,2048.00
2023-03-20T08:35:25.877Z,1904.00
2023-03-20T08:36:11.241Z,1648.00
2023-03-20T08:37:11.188Z,1488.00
2023-03-20T08:38:11.143Z,1468.00
2023-03-20T08:39:11.193Z,1452.00
2023-03-20T08:40:11.178Z,1420.00
2023-03-20T08:41:11.130Z,1284.00
2023-03-20T08:42:11.161Z,1092.00
2023-03-20T08:43:11.089Z,1000.00
2023-03-20T08:44:11.092Z,1044.00
2023-03-20T08:45:11.104Z,1024.00
2023-03-20T08:46:11.150Z,992.00
2023-03-20T08:47:11.079Z,996.00
2023-03-20T08:48:11.080Z,1080.00
2023-03-20T08:49:11.037Z,1224.00
2023-03-20T08:50:11.049Z,1412.00
2023-03-20T08:51:11.057Z,1592.00
2023-03-20T08:52:11.017Z,1660.00
2023-03-20T08:53:11.188Z,1636.00
2023-03-20T08:54:11.007Z,1652.00
2023-03-20T08:55:10.995Z,1708.00
2023-03-20T08:56:11.002Z,1832.00
2023-03-20T08:57:10.981Z,1960.00
2023-03-20T08:58:10.949Z,2076.00
2023-03-20T08:59:10.965Z,2180.00
2023-03-20T09:00:11.003Z,2264.00
2023-03-20T09:01:11.134Z,2296.00
2023-03-20T09:02:11.099Z,2304.00
2023-03-20T09:03:10.952Z,2308.00
2023-03-20T09:04:10.917Z,2268.00
2023-03-20T09:05:10.909Z,2172.00
2023-03-20T09:06:10.884Z,2084.00
2023-03-20T09:07:10.892Z,2052.00
2023-03-20T09:08:10.880Z,2232.00
2023-03-20T09:09:10.881Z,2204.00
2023-03-20T09:10:10.877Z,1988.00
2023-03-20T09:11:10.877Z,1788.00
2023-03-20T09:12:10.857Z,1652.00
2023-03-20T09:13:26.080Z,1548.00
2023-03-20T09:14:10.832Z,1480.00
2023-03-20T09:15:10.829Z,1448.00
2023-03-20T09:16:12.548Z,1476.00
2023-03-20T09:17:10.783Z,1472.00
2023-03-20T09:18:10.782Z,1556.00
2023-03-20T09:19:10.802Z,1724.00
2023-03-20T09:20:10.982Z,1748.00
2023-03-20T09:21:10.766Z,1684.00
2023-03-20T09:22:10.740Z,1628.00
2023-03-20T09:23:10.786Z,1612.00
2023-03-20T09:24:10.775Z,1584.00
2023-03-20T09:25:10.759Z,1568.00
2023-03-20T09:26:10.918Z,1588.00
2023-03-20T09:27:10.731Z,1644.00
2023-03-20T09:28:10.762Z,1748.00
2023-03-20T09:29:10.718Z,1768.00
2023-03-20T09:30:10.744Z,1948.00
2023-03-20T09:31:10.706Z,1928.00
2023-03-20T09:32:10.682Z,1748.00
2023-03-20T09:33:10.821Z,1680.00
2023-03-20T09:34:10.695Z,1652.00
2023-03-20T09:35:10.664Z,1636.00
2023-03-20T09:36:10.686Z,1552.00
2023-03-20T09:37:10.639Z,1508.00
2023-03-20T09:38:10.624Z,1480.00
2023-03-20T09:39:10.606Z,1464.00
2023-03-20T09:40:10.592Z,1436.00
2023-03-20T09:41:10.622Z,1432.00
2023-03-20T09:42:10.583Z,1456.00
2023-03-20T09:43:10.583Z,1448.00
2023-03-20T09:44:10.584Z,1384.00
2023-03-20T09:45:10.546Z,1348.00
2023-03-20T09:46:10.572Z,1340.00
2023-03-20T09:47:19.903Z,1380.00
2023-03-20T09:48:10.523Z,1388.00
2023-03-20T09:49:10.538Z,1444.00
2023-03-20T09:50:10.656Z,1544.00
2023-03-20T09:51:10.513Z,1600.00
2023-03-20T09:52:10.481Z,1584.00
2023-03-20T09:53:10.700Z,1596.00
2023-03-20T09:54:10.483Z,1568.00
2023-03-20T09:55:10.491Z,1476.00
2023-03-20T09:56:10.464Z,1472.00
2023-03-20T09:57:10.480Z,1548.00
2023-03-20T09:58:10.485Z,1580.00
2023-03-20T09:59:10.435Z,1580.00
2023-03-20T10:00:10.418Z,1584.00
2023-03-20T10:01:10.419Z,1588.00
2023-03-20T10:02:10.447Z,1548.00
2023-03-20T10:03:10.401Z,1556.00
2023-03-20T10:04:10.454Z,1548.00
2023-03-20T10:05:10.393Z,1548.00
2023-03-20T10:06:10.385Z,1548.00
2023-03-20T10:07:10.378Z,1556.00
2023-03-20T10:08:10.351Z,1620.00
2023-03-20T10:09:10.360Z,1692.00
2023-03-20T10:10:10.352Z,1812.00
2023-03-20T10:11:10.340Z,1944.00
2023-03-20T10:12:10.333Z,2064.00
2023-03-20T10:13:10.341Z,2156.00
2023-03-20T10:14:10.323Z,2244.00
2023-03-20T10:15:10.310Z,2352.00
2023-03-20T10:16:10.535Z,2412.00
2023-03-20T10:17:10.273Z,2380.00
2023-03-20T10:18:10.333Z,2496.00
2023-03-20T10:19:10.283Z,2664.00
2023-03-20T10:20:10.261Z,2772.00
2023-03-20T10:21:10.253Z,2996.00
2023-03-20T10:22:10.235Z,3308.00
2023-03-20T10:23:10.244Z,3556.00
2023-03-20T10:24:10.243Z,3684.00
2023-03-20T10:25:10.228Z,3712.00
2023-03-20T10:26:10.202Z,3660.00
2023-03-20T10:27:10.210Z,3592.00
2023-03-20T10:28:10.200Z,3648.00
2023-03-20T10:29:10.232Z,3800.00
2023-03-20T10:30:10.171Z,3732.00
2023-03-20T10:31:10.236Z,3768.00
2023-03-20T10:32:10.151Z,3756.00
2023-03-20T10:33:10.237Z,3352.00
2023-03-20T10:34:10.175Z,2972.00
2023-03-20T10:35:10.136Z,2872.00
2023-03-20T10:36:10.216Z,2748.00
2023-03-20T10:37:10.142Z,2720.00
2023-03-20T10:38:10.109Z,2432.00
2023-03-20T10:39:10.122Z,1972.00
2023-03-20T10:40:10.113Z,1644.00
2023-03-20T10:41:10.101Z,1476.00
2023-03-20T10:42:10.105Z,1388.00
2023-03-20T10:43:10.118Z,1408.00
2023-03-20T10:44:10.093Z,1448.00
2023-03-20T10:45:10.083Z,1544.00
2023-03-20T10:46:10.075Z,1700.00
2023-03-20T10:47:10.072Z,1724.00
2023-03-20T10:48:10.022Z,1632.00
2023-03-20T10:49:10.233Z,1596.00
2023-03-20T10:50:10.012Z,1704.00
2023-03-20T10:51:09.992Z,1720.00
2023-03-20T10:52:09.990Z,1768.00
2023-03-20T10:53:09.995Z,1700.00
2023-03-20T10:54:09.969Z,1708.00
2023-03-20T10:55:09.968Z,1708.00
2023-03-20T10:56:09.952Z,1884.00
2023-03-20T10:57:09.944Z,2004.00
2023-03-20T10:58:09.950Z,2036.00
2023-03-20T10:59:09.932Z,2096.00
2023-03-20T11:00:09.938Z,2300.00
2023-03-20T11:01:09.974Z,2408.00
2023-03-20T11:02:09.910Z,2500.00
2023-03-20T11:03:09.911Z,2644.00
2023-03-20T11:04:09.956Z,2696.00
2023-03-20T11:05:09.917Z,2680.00
2023-03-20T11:06:10.585Z,2488.00
2023-03-20T11:07:09.890Z,2228.00
2023-03-20T11:08:09.853Z,1880.00
2023-03-20T11:09:09.859Z,1624.00
2023-03-20T11:10:09.842Z,1588.00
2023-03-20T11:11:09.855Z,1568.00
2023-03-20T11:12:09.830Z,1544.00
2023-03-20T11:13:09.817Z,1440.00
2023-03-20T11:14:09.800Z,1252.00
2023-03-20T11:15:09.803Z,1112.00
2023-03-20T11:16:09.861Z,1056.00
2023-03-20T11:17:09.885Z,1032.00
2023-03-20T11:18:09.764Z,984.00
2023-03-20T11:19:09.792Z,968.00
2023-03-20T11:20:09.788Z,964.00
2023-03-20T11:21:09.769Z,1044.00
2023-03-20T11:22:09.770Z,1168.00
2023-03-20T11:23:09.741Z,1316.00
2023-03-20T11:24:11.615Z,1416.00
2023-03-20T11:25:09.714Z,1692.00
2023-03-20T11:26:09.711Z,1904.00
2023-03-20T11:27:09.713Z,2056.00
2023-03-20T11:28:09.739Z,2028.00
2023-03-20T11:29:09.698Z,2000.00
2023-03-20T11:30:09.714Z,2032.00
2023-03-20T11:31:09.718Z,2084.00
2023-03-20T11:32:09.743Z,2116.00
2023-03-20T11:33:09.733Z,2140.00
2023-03-20T11:34:09.661Z,2096.00
2023-03-20T11:35:09.649Z,2052.00
2023-03-20T11:36:09.661Z,2060.00
2023-03-20T11:37:10.910Z,2080.00
2023-03-20T11:38:09.623Z,2128.00
2023-03-20T11:39:09.618Z,2212.00
2023-03-20T11:40:09.593Z,2224.00
2023-03-20T11:41:09.578Z,2196.00
2023-03-20T11:42:09.615Z,2100.00
2023-03-20T11:43:09.573Z,2000.00
2023-03-20T11:44:09.560Z,1976.00
2023-03-20T11:45:09.552Z,1944.00
2023-03-20T11:46:09.636Z,1892.00
2023-03-20T11:47:09.567Z,1888.00
2023-03-20T11:48:09.543Z,1868.00
2023-03-20T11:49:09.538Z,1792.00
2023-03-20T11:50:09.522Z,1756.00
2023-03-20T11:51:09.509Z,1828.00
2023-03-20T11:52:09.499Z,1844.00
2023-03-20T11:53:09.522Z,1740.00
2023-03-20T11:54:09.496Z,1608.00
2023-03-20T11:55:09.455Z,1468.00
2023-03-20T11:56:09.446Z,1380.00
2023-03-20T11:57:09.450Z,1268.00
2023-03-20T11:58:09.431Z,1188.00
2023-03-20T11:59:09.459Z,1100.00
2023-03-20T12:00:09.437Z,988.00
2023-03-20T12:01:09.436Z,932.00
2023-03-20T12:02:09.506Z,908.00
2023-03-20T12:03:09.483Z,916.00
2023-03-20T12:04:09.404Z,896.00
2023-03-20T12:05:11.942Z,868.00
2023-03-20T12:06:09.388Z,796.00
2023-03-20T12:07:09.381Z,728.00
2023-03-20T12:08:09.390Z,712.00
2023-03-20T12:09:09.367Z,728.00
2023-03-20T12:10:09.564Z,752.00
2023-03-20T12:11:09.342Z,800.00
2023-03-20T12:12:09.385Z,868.00
2023-03-20T12:13:09.342Z,944.00
2023-03-20T12:14:09.331Z,980.00
2023-03-20T12:15:09.324Z,1032.00
2023-03-20T12:16:09.419Z,1060.00
2023-03-20T12:17:09.319Z,1116.00
2023-03-20T12:18:09.304Z,1128.00
2023-03-20T12:19:09.306Z,1184.00
2023-03-20T12:20:09.283Z,1216.00
2023-03-20T12:21:09.285Z,1200.00
2023-03-20T12:22:09.245Z,1192.00
2023-03-20T12:23:09.248Z,1164.00
2023-03-20T12:24:09.238Z,1128.00
2023-03-20T12:25:09.242Z,1068.00
2023-03-20T12:26:09.237Z,1000.00
2023-03-20T12:27:09.200Z,944.00
2023-03-20T12:28:09.205Z,920.00
2023-03-20T12:29:09.211Z,948.00
2023-03-20T12:30:09.195Z,1060.00
2023-03-20T12:31:09.184Z,1192.00
2023-03-20T12:32:09.160Z,1364.00
2023-03-20T12:33:09.226Z,1508.00
2023-03-20T12:34:09.161Z,1740.00
2023-03-20T12:35:09.154Z,2064.00
2023-03-20T12:36:09.217Z,2500.00
2023-03-20T12:37:09.156Z,2976.00
2023-03-20T12:38:09.124Z,3260.00
2023-03-20T12:39:09.109Z,3340.00
2023-03-20T12:40:09.120Z,3372.00